Main page
METAR-TAF:

METAR-TAF

Airports :

MoD Boscombe Down

Boscombe Down, England

latitude: 51-10N, longitude: 001-45W, elevation: 124 m

Current weather observation

The report was made 36 minutes ago, at 01:50 UTC
Wind 4 kt from the South/Southwest
Temperature 10°C
Humidity 87%
Pressure 1019 hPa
Visibility 10 km or more

METAR: EGDM 220150Z AUTO 21004KT 9999 BKN170/// 10/08 Q1019

Time: 03:26 (02:26 UTC)

Forecast

The report was made 15 hours and 41 minutes ago, at 10:45 UTC
Forecast valid from 21 at 12 UTC to 21 at 17 UTC
Wind 20 kt from the West with gusts up to 30 kt
Visibility 10 km or more
Few clouds at a height of 3000 ft
Probability 40% :
Temporary
from 21 at 12 UTC to 21 at 17 UTC
Visibility: 6000 m
Scattered clouds at a height of 2200 ft, Towering cumulus.
rain showers
Probability 30% :
Temporary
from 21 at 12 UTC to 21 at 16 UTC
Wind 26 kt from the West/Northwest with gusts up to 40 kt

TAF: EGDM 211045Z 2112/2117 28020G30KT 9999 FEW030 PROB40 TEMPO 2112/2117 6000 SHRA SCT022TCU PROB30 TEMPO 2112/2116 29026G40KT

Weather observations and forecasts of more than 4000 airports (METAR and TAF reports).

The available stations are represented by yellow and red dots on the map.

Hover mouse over dot to see the name of the station.

Then click to see weather observations and forecasts.

To change the map : click on the green buttons with a black cross to zoom in, on the green button with a dash to zoom out, or on the green arrows for adjacent maps.


METAR-TAF: